Jackson, MO (63755)

4:15 AM CDT on June 23, 2017 (GMT -0500)
Northwest Jackson | | Change Station

Elev 465 ft 37.39 °N, 89.68 °W | Updated 1 second ago

Rain
Rain
75.7 °F
Feels Like 75 °F
N
4.6
Wind Variable Wind from SSE
Gusts 4.6 mph

Today
High -- | Low -- °F
--% Chance of Precip.
Yesterday
High -- | Low -- °F
Precip. -- in
Pressure 29.71 in
Visibility 2.5 miles
Clouds Scattered Clouds 1700 ft
Scattered Clouds 2300 ft
Overcast 4000 ft
Heat Index 75 °F
Dew Point 74 °F
Humidity 94%
Rainfall 0.00 in
Snow Depth Not available.
5:38 AM 8:23 PM
Waning Crescent, 1% visible
SPECI KCGI 230911Z AUTO 19008KT 2 1/2SM +RA BR SCT017 SCT023 OVC040 24/23 A2971 RMK AO2 P0013 T02390228
Pressure 29.71 in
Visibility 2.5 miles
Clouds Scattered Clouds 1700 ft
Scattered Clouds 2300 ft
Overcast 4000 ft
Heat Index 75 °F
Dew Point 74 °F
Humidity 94%
Rainfall 0.00 in
Snow Depth Not available.
5:38 AM 8:23 PM
Waning Crescent, 1% visible
SPECI KCGI 230911Z AUTO 19008KT 2 1/2SM +RA BR SCT017 SCT023 OVC040 24/23 A2971 RMK AO2 P0013 T02390228

Get Severe Weather Alerts

Thanks for signing up!

Be on the lookout for a verification email in your inbox.

You'll start receiving the daily forecast at 6 AM.

×

10-Day Weather Forecast

Almanac

Astronomy

Jun. 23, 2017 Rise Set
Actual Time
Civil Twilight
Nautical Twilight
Astronomical Twilight
Moon
Length of Visible Light
Length of Day
Tomorrow will be .
, % of the Moon is Illuminated

Today's Extremes

State Highs State Lows

Community

WunderPhotos

Category 6

Welcome to Category 6. This is the collective home for Weather Underground's featured writeups by Dr. Jeff Masters (right), Bob Henson (left), Chris Burt, and other regular contributors.

Nearby

Air Quality

  Air Quality AQ Index Pollutant
Not available.

Snow Depth

Station Depth Elevation

Earthquake Activity

City Distance Mag. Time & Date
Minimum magnitude displayed is 2.5.

Coastal Water Temperatures

Place Temperature

Stations

Nearby Weather Stations

Station Location Temp. Windchill Dew Point Humidity Wind Precip. Elev Updated Type
                   

Watches & Warnings

There are currently no watches in effect.